createdAt,value
2018-07-15T00:00:57.139Z,99.90
2018-07-15T00:03:25.360Z,99.90
2018-07-15T00:05:53.570Z,99.90
2018-07-15T00:08:21.745Z,99.90
2018-07-15T00:10:49.984Z,99.90
2018-07-15T00:13:18.251Z,99.90
2018-07-15T00:15:46.441Z,99.90
2018-07-15T00:18:14.646Z,99.90
2018-07-15T00:20:42.823Z,99.90
2018-07-15T00:23:11.014Z,99.90
2018-07-15T00:25:39.192Z,99.90
2018-07-15T00:28:07.782Z,99.90
2018-07-15T00:30:35.982Z,99.90
2018-07-15T00:33:04.169Z,99.90
2018-07-15T00:35:32.442Z,99.90
2018-07-15T00:38:00.601Z,99.90
2018-07-15T00:40:28.798Z,99.90
2018-07-15T00:42:57.022Z,99.90
2018-07-15T00:45:25.229Z,99.90
2018-07-15T00:47:53.484Z,99.90
2018-07-15T00:50:22.152Z,99.90
2018-07-15T00:52:50.370Z,99.90
2018-07-15T00:55:18.994Z,99.90
2018-07-15T00:57:47.103Z,99.90
2018-07-15T01:00:19.553Z,99.90
2018-07-15T01:02:47.726Z,99.90
2018-07-15T01:05:15.922Z,99.90
2018-07-15T01:07:44.074Z,99.90
2018-07-15T01:10:12.265Z,99.90
2018-07-15T01:12:40.435Z,99.90
2018-07-15T01:15:08.595Z,99.90
2018-07-15T01:17:36.768Z,99.90
2018-07-15T01:20:05.161Z,99.90
2018-07-15T01:22:33.326Z,99.90
2018-07-15T01:25:01.496Z,99.90
2018-07-15T01:27:29.671Z,99.90
2018-07-15T01:29:58.720Z,99.90
2018-07-15T01:32:27.500Z,99.90
2018-07-15T01:34:55.668Z,99.90
2018-07-15T01:37:25.086Z,99.90
2018-07-15T01:39:53.371Z,99.90
2018-07-15T01:42:22.047Z,99.90
2018-07-15T01:44:50.320Z,99.90
2018-07-15T01:47:18.498Z,99.90
2018-07-15T01:49:46.714Z,99.90
2018-07-15T01:52:14.930Z,99.90
2018-07-15T01:54:43.103Z,99.90
2018-07-15T01:57:11.431Z,99.90
2018-07-15T01:59:39.610Z,99.90
2018-07-15T02:02:07.830Z,99.90
2018-07-15T02:04:35.947Z,99.90
2018-07-15T02:07:04.935Z,99.90
2018-07-15T02:09:33.089Z,99.90
2018-07-15T02:12:02.271Z,99.90
2018-07-15T02:14:31.054Z,99.90
2018-07-15T02:16:59.242Z,99.90
2018-07-15T02:19:27.618Z,99.90
2018-07-15T02:21:55.788Z,99.90
2018-07-15T02:24:24.068Z,99.90
2018-07-15T02:26:53.005Z,99.90
2018-07-15T02:29:21.161Z,99.90
2018-07-15T02:31:49.341Z,99.90
2018-07-15T02:34:17.524Z,99.90
2018-07-15T02:36:45.782Z,99.90
2018-07-15T02:39:13.917Z,99.90
2018-07-15T02:41:42.091Z,99.90
2018-07-15T02:44:10.275Z,99.90
2018-07-15T02:46:38.450Z,99.90
2018-07-15T02:49:06.610Z,99.90
2018-07-15T02:51:34.889Z,99.90
2018-07-15T02:54:03.044Z,99.90
2018-07-15T02:56:31.254Z,99.90
2018-07-15T02:58:59.419Z,99.90
2018-07-15T03:01:27.624Z,99.90
2018-07-15T03:03:55.833Z,99.90
2018-07-15T03:06:24.040Z,99.90
2018-07-15T03:08:52.205Z,99.90
2018-07-15T03:11:20.346Z,99.90
2018-07-15T03:13:48.569Z,99.90
2018-07-15T03:16:16.725Z,99.90
2018-07-15T03:18:44.879Z,99.90
2018-07-15T03:21:13.037Z,99.90
2018-07-15T03:23:41.211Z,99.90
2018-07-15T03:26:09.490Z,99.90
2018-07-15T03:28:37.622Z,99.90
2018-07-15T03:31:05.921Z,99.90
2018-07-15T03:33:34.130Z,99.90
2018-07-15T03:36:02.353Z,99.90
2018-07-15T03:38:30.643Z,99.90
2018-07-15T03:40:58.768Z,99.90
2018-07-15T03:43:26.930Z,99.90
2018-07-15T03:45:55.956Z,99.90
2018-07-15T03:48:24.536Z,99.90
2018-07-15T03:50:52.792Z,99.90
2018-07-15T03:53:21.261Z,99.90
2018-07-15T03:55:49.460Z,99.90
2018-07-15T03:58:17.648Z,99.90
2018-07-15T04:00:45.824Z,99.90
2018-07-15T04:03:14.051Z,99.90
2018-07-15T04:05:42.205Z,99.90
2018-07-15T04:08:11.019Z,99.90
2018-07-15T04:10:39.180Z,99.90
2018-07-15T04:13:07.382Z,99.90
2018-07-15T04:15:36.482Z,99.90
2018-07-15T04:18:05.881Z,99.90
2018-07-15T04:20:35.393Z,99.90
2018-07-15T04:23:04.515Z,99.90
2018-07-15T04:25:33.580Z,99.90
2018-07-15T04:28:02.159Z,99.90
2018-07-15T04:30:30.281Z,99.90
2018-07-15T04:32:58.439Z,99.90
2018-07-15T04:35:26.667Z,99.90
2018-07-15T04:37:54.884Z,99.90
2018-07-15T04:40:23.140Z,99.90
2018-07-15T04:42:51.351Z,99.90
2018-07-15T04:45:20.158Z,99.90
2018-07-15T04:47:48.719Z,99.90
2018-07-15T04:50:16.870Z,99.90
2018-07-15T04:52:45.253Z,99.90
2018-07-15T04:55:13.505Z,99.90
2018-07-15T04:57:41.689Z,99.90
2018-07-15T05:00:09.866Z,99.90
2018-07-15T05:02:38.069Z,99.90
2018-07-15T05:05:06.247Z,99.90
2018-07-15T05:07:34.427Z,99.90
2018-07-15T05:10:02.568Z,99.90
2018-07-15T05:12:30.762Z,99.90
2018-07-15T05:14:58.916Z,99.90
2018-07-15T05:17:27.389Z,99.90
2018-07-15T05:19:55.514Z,99.90
2018-07-15T05:22:23.670Z,99.90
2018-07-15T05:24:51.852Z,99.90
2018-07-15T05:27:19.991Z,99.90
2018-07-15T05:29:48.174Z,99.90
2018-07-15T05:32:16.341Z,99.90
2018-07-15T05:37:34.835Z,99.90
2018-07-15T05:40:03.057Z,99.90
2018-07-15T05:42:31.180Z,99.90
2018-07-15T05:44:59.334Z,99.90
2018-07-15T05:47:27.494Z,99.90
2018-07-15T05:49:55.713Z,99.90
2018-07-15T05:52:23.927Z,99.90
2018-07-15T05:54:52.130Z,99.90
2018-07-15T05:57:20.293Z,99.90
2018-07-15T05:59:48.855Z,99.90
2018-07-15T06:02:17.048Z,99.90
2018-07-15T06:04:45.231Z,99.90
2018-07-15T06:07:13.501Z,99.90
2018-07-15T06:09:42.189Z,99.90
2018-07-15T06:12:10.383Z,99.90
2018-07-15T06:14:38.517Z,99.90
2018-07-15T06:17:06.795Z,99.90
2018-07-15T06:19:35.313Z,99.90
2018-07-15T06:22:03.535Z,99.90
2018-07-15T06:24:31.676Z,99.90
2018-07-15T06:26:59.862Z,99.90
2018-07-15T06:29:28.094Z,99.90
2018-07-15T06:31:56.352Z,99.90
2018-07-15T06:34:24.557Z,99.90
2018-07-15T06:36:52.730Z,99.90
2018-07-15T06:39:21.724Z,99.90
2018-07-15T06:41:50.774Z,99.90
2018-07-15T06:44:19.014Z,99.90
2018-07-15T06:46:47.229Z,99.90
2018-07-15T06:49:15.475Z,99.90
2018-07-15T06:51:43.646Z,99.90
2018-07-15T06:54:11.826Z,99.90
2018-07-15T06:56:41.268Z,99.90
2018-07-15T06:59:09.431Z,99.90
2018-07-15T07:01:37.671Z,99.90
2018-07-15T07:04:06.309Z,99.90
2018-07-15T07:06:34.508Z,99.90
2018-07-15T07:09:04.143Z,99.90
2018-07-15T07:11:32.701Z,99.90
2018-07-15T07:14:01.426Z,99.90
2018-07-15T07:19:32.119Z,99.90
2018-07-15T07:22:00.628Z,99.90
2018-07-15T07:24:29.232Z,99.90
2018-07-15T07:26:58.725Z,99.90
2018-07-15T07:29:27.204Z,99.90
2018-07-15T07:31:55.704Z,99.90
2018-07-15T07:34:24.407Z,99.90
2018-07-15T07:36:53.217Z,99.90
2018-07-15T07:39:22.181Z,99.90
2018-07-15T07:44:42.395Z,99.90
2018-07-15T07:47:11.163Z,99.90
2018-07-15T07:49:39.902Z,99.80
2018-07-15T07:52:09.003Z,99.60
2018-07-15T07:54:37.465Z,98.70
2018-07-15T07:57:06.146Z,99.00
2018-07-15T07:59:34.834Z,98.90
2018-07-15T08:02:03.288Z,98.90
2018-07-15T08:04:31.786Z,99.10
2018-07-15T08:07:00.353Z,98.30
2018-07-15T08:09:30.105Z,97.70
2018-07-15T08:11:58.708Z,97.30
2018-07-15T08:14:27.576Z,96.40
2018-07-15T08:16:56.149Z,95.70
2018-07-15T08:19:24.772Z,95.60
2018-07-15T08:21:53.319Z,95.90
2018-07-15T08:24:21.874Z,94.20
2018-07-15T08:26:50.906Z,94.90
2018-07-15T08:29:19.650Z,92.10
2018-07-15T08:31:48.241Z,91.50
2018-07-15T08:34:16.928Z,91.20
2018-07-15T08:36:45.468Z,90.80
2018-07-15T08:39:13.890Z,90.40
2018-07-15T08:41:42.384Z,90.40
2018-07-15T08:44:10.959Z,90.30
2018-07-15T08:46:39.598Z,90.30
2018-07-15T08:49:09.312Z,89.50
2018-07-15T08:51:37.865Z,88.70
2018-07-15T08:54:06.354Z,87.50
2018-07-15T08:56:34.821Z,87.20
2018-07-15T08:59:03.322Z,86.00
2018-07-15T09:01:31.795Z,85.90
2018-07-15T09:04:00.264Z,82.40
2018-07-15T09:06:32.112Z,81.80
2018-07-15T09:09:02.037Z,80.00
2018-07-15T09:11:31.580Z,82.30
2018-07-15T09:14:00.067Z,79.60
2018-07-15T09:16:28.505Z,77.70
2018-07-15T09:18:57.401Z,76.80
2018-07-15T09:21:25.876Z,75.10
2018-07-15T09:23:54.357Z,77.40
2018-07-15T09:26:22.849Z,76.70
2018-07-15T09:28:51.373Z,75.40
2018-07-15T09:31:19.860Z,73.80
2018-07-15T09:33:48.321Z,75.00
2018-07-15T09:36:16.912Z,74.50
2018-07-15T09:38:45.553Z,71.70
2018-07-15T09:41:14.253Z,69.20
2018-07-15T09:43:42.645Z,71.80
2018-07-15T09:46:11.091Z,69.30
2018-07-15T09:48:39.524Z,71.20
2018-07-15T09:51:07.954Z,70.10
2018-07-15T09:53:36.699Z,65.50
2018-07-15T09:56:05.499Z,64.20
2018-07-15T09:58:34.166Z,67.20
2018-07-15T10:01:02.583Z,67.90
2018-07-15T10:03:32.230Z,64.50
2018-07-15T10:06:04.566Z,65.80
2018-07-15T10:08:33.379Z,66.10
2018-07-15T10:11:02.189Z,66.20
2018-07-15T10:13:32.101Z,66.10
2018-07-15T10:16:01.082Z,69.10
2018-07-15T10:18:30.945Z,70.00
2018-07-15T10:21:01.084Z,66.40
2018-07-15T10:23:30.176Z,67.40
2018-07-15T10:25:59.162Z,66.30
2018-07-15T10:28:28.260Z,67.90
2018-07-15T10:30:57.193Z,68.30
2018-07-15T10:33:26.693Z,68.40
2018-07-15T10:35:55.977Z,67.20
2018-07-15T10:38:24.887Z,64.10
2018-07-15T10:40:55.025Z,65.20
2018-07-15T10:43:24.534Z,63.40
2018-07-15T10:45:53.299Z,62.70
2018-07-15T10:48:22.858Z,61.90
2018-07-15T10:50:53.048Z,63.80
2018-07-15T10:53:22.041Z,65.30
2018-07-15T10:55:51.632Z,64.80
2018-07-15T10:58:20.745Z,64.10
2018-07-15T11:00:50.002Z,64.10
2018-07-15T11:03:19.858Z,60.90
2018-07-15T11:05:49.817Z,60.90
2018-07-15T11:08:18.878Z,60.70
2018-07-15T11:10:48.297Z,61.10
2018-07-15T11:13:17.552Z,60.60
2018-07-15T11:15:46.557Z,59.10
2018-07-15T11:18:15.470Z,60.40
2018-07-15T11:20:43.937Z,60.30
2018-07-15T11:23:12.372Z,60.90
2018-07-15T11:25:40.842Z,60.80
2018-07-15T11:28:09.398Z,61.50
2018-07-15T11:30:38.006Z,61.50
2018-07-15T11:33:06.595Z,61.80
2018-07-15T11:35:35.162Z,61.70
2018-07-15T11:38:03.739Z,61.90
2018-07-15T11:40:32.240Z,62.50
2018-07-15T11:43:00.758Z,63.60
2018-07-15T11:45:29.847Z,64.10
2018-07-15T11:47:58.666Z,64.70
2018-07-15T11:50:27.259Z,62.50
2018-07-15T11:52:56.691Z,60.90
2018-07-15T11:55:25.772Z,56.80
2018-07-15T11:57:54.919Z,57.40
2018-07-15T12:00:24.189Z,58.60
2018-07-15T12:02:53.127Z,58.00
2018-07-15T12:05:22.180Z,58.20
2018-07-15T12:07:51.234Z,55.80
2018-07-15T12:10:20.098Z,56.00
2018-07-15T12:12:49.075Z,55.50
2018-07-15T12:15:17.764Z,53.90
2018-07-15T12:17:46.340Z,53.00
2018-07-15T12:20:15.306Z,50.80
2018-07-15T12:22:44.969Z,51.80
2018-07-15T12:25:13.793Z,51.80
2018-07-15T12:27:42.442Z,51.10
2018-07-15T12:30:11.078Z,51.70
2018-07-15T12:32:39.816Z,50.90
2018-07-15T12:35:08.314Z,51.30
2018-07-15T12:37:37.214Z,50.20
2018-07-15T12:40:06.128Z,54.70
2018-07-15T12:42:34.772Z,58.80
2018-07-15T12:45:04.412Z,61.60
2018-07-15T12:47:33.042Z,63.70
2018-07-15T12:50:01.781Z,63.20
2018-07-15T12:52:30.381Z,63.90
2018-07-15T12:54:59.419Z,64.40
2018-07-15T12:57:30.928Z,64.70
2018-07-15T13:00:00.768Z,65.20
2018-07-15T13:02:29.659Z,64.40
2018-07-15T13:04:58.398Z,64.60
2018-07-15T13:07:27.822Z,65.70
2018-07-15T13:09:56.406Z,67.00
2018-07-15T13:12:25.560Z,65.80
2018-07-15T13:14:55.616Z,67.00
2018-07-15T13:17:24.417Z,68.20
2018-07-15T13:19:54.298Z,67.90
2018-07-15T13:22:23.822Z,67.50
2018-07-15T13:24:53.055Z,68.80
2018-07-15T13:27:24.648Z,69.00
2018-07-15T13:29:54.814Z,70.80
2018-07-15T13:32:27.186Z,71.40
2018-07-15T13:34:57.156Z,70.80
2018-07-15T13:37:25.798Z,72.10
2018-07-15T13:39:58.224Z,72.50
2018-07-15T13:42:28.589Z,70.60
2018-07-15T13:44:57.949Z,71.60
2018-07-15T13:47:27.407Z,71.90
2018-07-15T13:49:57.216Z,71.10
2018-07-15T13:52:27.463Z,71.50
2018-07-15T13:54:56.072Z,71.70
2018-07-15T13:57:24.765Z,72.90
2018-07-15T13:59:53.991Z,73.40
2018-07-15T14:02:22.589Z,74.90
2018-07-15T14:04:51.221Z,74.70
2018-07-15T14:07:19.758Z,74.80
2018-07-15T14:09:48.696Z,74.10
2018-07-15T14:12:19.576Z,73.90
2018-07-15T14:14:48.228Z,74.10
2018-07-15T14:17:17.116Z,73.90
2018-07-15T14:19:45.914Z,74.40
2018-07-15T14:22:14.614Z,75.00
2018-07-15T14:24:43.590Z,74.00
2018-07-15T14:27:12.704Z,74.00
2018-07-15T14:29:41.621Z,74.10
2018-07-15T14:32:10.820Z,74.70
2018-07-15T14:34:39.694Z,73.80
2018-07-15T14:37:08.400Z,74.10
2018-07-15T14:39:40.927Z,71.50
2018-07-15T14:42:09.904Z,72.90
2018-07-15T14:44:39.411Z,72.60
2018-07-15T14:47:08.851Z,73.90
2018-07-15T14:49:40.308Z,73.90
2018-07-15T14:52:08.799Z,74.00
2018-07-15T14:54:38.237Z,74.60
2018-07-15T14:57:07.377Z,75.40
2018-07-15T14:59:36.076Z,74.30
2018-07-15T15:02:05.579Z,76.60
2018-07-15T15:04:34.073Z,76.40
2018-07-15T15:07:02.761Z,75.00
2018-07-15T15:09:31.189Z,75.00
2018-07-15T15:11:59.632Z,74.80
2018-07-15T15:14:28.462Z,73.70
2018-07-15T15:16:57.269Z,72.50
2018-07-15T15:19:25.745Z,71.60
2018-07-15T15:21:54.293Z,72.30
2018-07-15T15:24:23.374Z,72.00
2018-07-15T15:26:52.310Z,72.50
2018-07-15T15:29:20.720Z,71.70
2018-07-15T15:31:49.086Z,72.20
2018-07-15T15:34:17.691Z,72.00
2018-07-15T15:36:46.105Z,71.00
2018-07-15T15:39:19.991Z,72.50
2018-07-15T15:41:48.443Z,71.20
2018-07-15T15:44:16.907Z,71.70
2018-07-15T15:46:45.416Z,72.30
2018-07-15T15:49:13.853Z,72.90
2018-07-15T15:51:42.305Z,71.80
2018-07-15T15:54:10.773Z,71.50
2018-07-15T15:56:39.681Z,71.00
2018-07-15T15:59:08.354Z,71.90
2018-07-15T16:01:36.817Z,68.70
2018-07-15T16:04:05.263Z,68.60
2018-07-15T16:06:33.802Z,67.00
2018-07-15T16:09:02.348Z,65.90
2018-07-15T16:11:30.800Z,67.90
2018-07-15T16:13:59.489Z,68.70
2018-07-15T16:16:27.871Z,69.70
2018-07-15T16:18:57.378Z,68.60
2018-07-15T16:21:25.902Z,69.40
2018-07-15T16:23:54.370Z,68.80
2018-07-15T16:26:24.222Z,68.50
2018-07-15T16:28:52.854Z,67.20
2018-07-15T16:31:21.287Z,67.40
2018-07-15T16:33:49.782Z,67.70
2018-07-15T16:36:19.220Z,66.40
2018-07-15T16:38:47.590Z,66.70
2018-07-15T16:41:16.129Z,68.10
2018-07-15T16:43:44.519Z,68.70
2018-07-15T16:46:12.995Z,68.00
2018-07-15T16:48:42.665Z,67.80
2018-07-15T16:51:11.115Z,66.90
2018-07-15T16:53:39.574Z,66.90
2018-07-15T16:56:08.099Z,66.80
2018-07-15T16:58:36.432Z,67.10
2018-07-15T17:01:04.999Z,66.40
2018-07-15T17:03:33.408Z,66.60
2018-07-15T17:06:02.123Z,66.50
2018-07-15T17:08:30.694Z,66.70
2018-07-15T17:10:59.151Z,66.00
2018-07-15T17:13:27.668Z,66.00
2018-07-15T17:15:56.303Z,67.20
2018-07-15T17:18:24.930Z,68.00
2018-07-15T17:20:53.291Z,69.20
2018-07-15T17:23:21.799Z,69.90
2018-07-15T17:25:50.246Z,70.40
2018-07-15T17:28:18.720Z,69.30
2018-07-15T17:30:47.351Z,69.00
2018-07-15T17:33:15.852Z,67.00
2018-07-15T17:35:44.423Z,66.90
2018-07-15T17:38:13.129Z,67.10
2018-07-15T17:40:41.814Z,67.00
2018-07-15T17:43:11.318Z,67.50
2018-07-15T17:45:39.903Z,66.20
2018-07-15T17:48:08.585Z,66.60
2018-07-15T17:50:37.612Z,67.00
2018-07-15T17:53:06.177Z,66.40
2018-07-15T17:55:34.773Z,67.10
2018-07-15T17:58:03.442Z,66.70
2018-07-15T18:00:32.651Z,66.90
2018-07-15T18:03:01.279Z,67.60
2018-07-15T18:05:29.989Z,67.90
2018-07-15T18:07:58.590Z,67.90
2018-07-15T18:10:27.375Z,68.10
2018-07-15T18:12:56.007Z,67.80
2018-07-15T18:15:24.473Z,68.50
2018-07-15T18:17:52.988Z,68.90
2018-07-15T18:20:21.608Z,69.00
2018-07-15T18:22:50.267Z,68.90
2018-07-15T18:25:18.904Z,69.20
2018-07-15T18:27:47.401Z,69.10
2018-07-15T18:30:15.980Z,69.10
2018-07-15T18:32:44.545Z,69.00
2018-07-15T18:35:13.102Z,70.50
2018-07-15T18:37:43.904Z,70.00
2018-07-15T18:40:12.490Z,70.30
2018-07-15T18:42:42.084Z,71.20
2018-07-15T18:45:10.793Z,72.00
2018-07-15T18:47:39.293Z,70.10
2018-07-15T18:50:08.196Z,69.60
2018-07-15T18:52:36.875Z,69.70
2018-07-15T18:55:07.206Z,71.10
2018-07-15T18:57:38.340Z,70.00
2018-07-15T19:00:08.591Z,69.10
2018-07-15T19:02:38.410Z,69.40
2018-07-15T19:05:08.720Z,70.40
2018-07-15T19:07:38.530Z,70.50
2018-07-15T19:10:07.458Z,69.60
2018-07-15T19:12:36.235Z,70.40
2018-07-15T19:15:05.061Z,71.10
2018-07-15T19:17:34.003Z,71.50
2018-07-15T19:20:02.754Z,73.30
2018-07-15T19:22:32.575Z,74.00
2018-07-15T19:25:01.215Z,74.00
2018-07-15T19:27:30.106Z,75.00
2018-07-15T19:29:59.553Z,75.80
2018-07-15T19:32:28.682Z,76.80
2018-07-15T19:34:57.569Z,77.10
2018-07-15T19:37:26.771Z,77.60
2018-07-15T19:39:56.076Z,77.80
2018-07-15T19:42:26.136Z,76.60
2018-07-15T19:44:56.160Z,76.70
2018-07-15T19:47:25.301Z,75.70
2018-07-15T19:49:56.304Z,76.80
2018-07-15T19:52:25.075Z,76.90
2018-07-15T19:54:53.659Z,78.50
2018-07-15T19:57:22.815Z,79.80
2018-07-15T19:59:52.301Z,80.70
2018-07-15T20:02:20.880Z,81.70
2018-07-15T20:04:49.587Z,82.10
2018-07-15T20:07:18.511Z,83.00
2018-07-15T20:09:47.316Z,84.20
2018-07-15T20:12:16.229Z,84.50
2018-07-15T20:14:44.888Z,84.80
2018-07-15T20:17:15.586Z,84.70
2018-07-15T20:19:44.548Z,85.40
2018-07-15T20:22:13.585Z,85.20
2018-07-15T20:24:42.472Z,85.90
2018-07-15T20:27:11.502Z,86.50
2018-07-15T20:29:40.197Z,86.90
2018-07-15T20:32:09.547Z,87.20
2018-07-15T20:34:39.508Z,87.00
2018-07-15T20:37:08.292Z,87.80
2018-07-15T20:39:38.938Z,88.50
2018-07-15T20:42:07.949Z,88.10
2018-07-15T20:44:36.794Z,88.50
2018-07-15T20:47:05.620Z,88.70
2018-07-15T20:49:34.633Z,88.60
2018-07-15T20:52:03.335Z,89.50
2018-07-15T20:54:32.170Z,90.30
2018-07-15T20:57:01.321Z,90.80
2018-07-15T21:00:51.629Z,91.00
2018-07-15T21:03:20.168Z,91.20
2018-07-15T21:05:48.299Z,91.40
2018-07-15T21:08:16.442Z,91.60
2018-07-15T21:10:44.550Z,91.80
2018-07-15T21:13:12.878Z,92.00
2018-07-15T21:15:41.375Z,92.20
2018-07-15T21:18:09.739Z,92.20
2018-07-15T21:20:37.966Z,92.10
2018-07-15T21:23:06.265Z,92.30
2018-07-15T21:25:34.573Z,92.40
2018-07-15T21:28:02.851Z,92.70
2018-07-15T21:30:30.970Z,93.10
2018-07-15T21:32:59.097Z,93.50
2018-07-15T21:35:27.254Z,93.70
2018-07-15T21:37:55.442Z,94.00
2018-07-15T21:40:23.463Z,94.50
2018-07-15T21:42:51.574Z,94.80
2018-07-15T21:45:19.694Z,95.00
2018-07-15T21:47:47.786Z,95.30
2018-07-15T21:50:15.918Z,95.30
2018-07-15T21:52:44.055Z,95.60
2018-07-15T21:55:12.269Z,95.90
2018-07-15T21:57:40.457Z,96.00
2018-07-15T22:00:09.155Z,96.00
2018-07-15T22:02:37.446Z,96.00
2018-07-15T22:05:05.706Z,96.30
2018-07-15T22:07:45.182Z,96.10
2018-07-15T22:10:16.316Z,95.80
2018-07-15T22:12:44.435Z,95.70
2018-07-15T22:15:12.574Z,95.80
2018-07-15T22:17:40.730Z,95.70
2018-07-15T22:20:08.903Z,95.80
2018-07-15T22:22:37.413Z,95.80
2018-07-15T22:25:06.249Z,96.00
2018-07-15T22:27:34.642Z,96.00
2018-07-15T22:30:02.751Z,96.10
2018-07-15T22:32:30.857Z,95.60
2018-07-15T22:34:58.978Z,95.40
2018-07-15T22:37:27.085Z,95.50
2018-07-15T22:39:55.197Z,95.00
2018-07-15T22:42:23.294Z,95.20
2018-07-15T22:44:51.411Z,95.20
2018-07-15T22:47:19.519Z,95.30
2018-07-15T22:49:47.606Z,95.50
2018-07-15T22:52:15.702Z,95.60
2018-07-15T22:54:43.801Z,95.60
2018-07-15T22:57:11.902Z,95.60
2018-07-15T22:59:40.075Z,96.10
2018-07-15T23:02:08.352Z,96.70
2018-07-15T23:05:52.376Z,96.90
2018-07-15T23:08:20.796Z,97.10
2018-07-15T23:10:48.914Z,97.30
2018-07-15T23:13:17.450Z,97.60
2018-07-15T23:15:45.750Z,97.80
2018-07-15T23:18:13.887Z,97.90
2018-07-15T23:20:42.702Z,98.20
2018-07-15T23:23:11.289Z,98.20
2018-07-15T23:25:39.487Z,98.30
2018-07-15T23:28:08.651Z,98.50
2018-07-15T23:30:37.541Z,98.80
2018-07-15T23:33:06.334Z,99.00
2018-07-15T23:35:34.626Z,99.30
2018-07-15T23:38:02.872Z,99.40
2018-07-15T23:40:31.069Z,99.90
2018-07-15T23:42:59.577Z,99.90
2018-07-15T23:45:28.565Z,99.90
2018-07-15T23:47:56.789Z,99.90
2018-07-15T23:50:24.922Z,99.90
2018-07-15T23:52:53.046Z,99.90
2018-07-15T23:55:21.198Z,99.90
2018-07-15T23:57:49.387Z,99.90
